createdAt,value
2023-05-21T00:01:17.247Z,98751.88
2023-05-21T00:03:46.934Z,98750.19
2023-05-21T00:06:15.974Z,98751.03
2023-05-21T00:08:44.575Z,98751.88
2023-05-21T00:11:14.574Z,98751.03
2023-05-21T00:13:42.976Z,98746.50
2023-05-21T00:16:11.916Z,98749.19
2023-05-21T00:18:40.669Z,98749.19
2023-05-21T00:21:09.402Z,98746.50
2023-05-21T00:23:39.911Z,98751.88
2023-05-21T00:26:08.411Z,98757.25
2023-05-21T00:28:38.247Z,98758.28
2023-05-21T00:31:06.856Z,98756.41
2023-05-21T00:33:35.257Z,98755.56
2023-05-21T00:36:04.893Z,98750.19
2023-05-21T00:38:33.937Z,98745.66
2023-05-21T00:41:03.036Z,98750.19
2023-05-21T00:43:32.868Z,98744.81
2023-05-21T00:46:02.950Z,98748.34
2023-05-21T00:48:32.504Z,98755.56
2023-05-21T00:51:00.907Z,98751.88
2023-05-21T00:53:30.247Z,98744.81
2023-05-21T00:55:59.031Z,98746.69
2023-05-21T00:58:27.407Z,98745.66
2023-05-21T01:00:56.963Z,98742.13
2023-05-21T01:03:27.284Z,98728.84
2023-05-21T01:06:00.386Z,98732.41
2023-05-21T01:08:29.123Z,98727.03
2023-05-21T01:10:57.595Z,98723.47
2023-05-21T01:13:26.394Z,98721.63
2023-05-21T01:15:54.822Z,98726.00
2023-05-21T01:18:23.985Z,98728.69
2023-05-21T01:20:55.244Z,98718.94
2023-05-21T01:23:25.395Z,98718.94
2023-05-21T01:25:53.888Z,98723.31
2023-05-21T01:28:22.339Z,98714.41
2023-05-21T01:30:50.757Z,98717.94
2023-05-21T01:33:23.736Z,98717.09
2023-05-21T01:35:55.303Z,98721.63
2023-05-21T01:38:28.742Z,98718.94
2023-05-21T01:40:59.184Z,98717.09
2023-05-21T01:43:28.181Z,98712.56
2023-05-21T01:45:57.667Z,98713.56
2023-05-21T01:48:26.336Z,98709.19
2023-05-21T01:50:55.543Z,98714.41
2023-05-21T01:53:25.333Z,98706.34
2023-05-21T01:55:54.808Z,98701.94
2023-05-21T01:58:24.274Z,98705.50
2023-05-21T02:00:52.732Z,98704.63
2023-05-21T02:03:21.884Z,98700.13
2023-05-21T02:05:52.265Z,98699.25
2023-05-21T02:08:20.936Z,98701.94
2023-05-21T02:10:50.890Z,98702.81
2023-05-21T02:13:22.403Z,98700.97
2023-05-21T02:15:54.768Z,98694.75
2023-05-21T02:18:23.895Z,98690.34
2023-05-21T02:20:52.532Z,98695.72
2023-05-21T02:23:20.961Z,98698.41
2023-05-21T02:25:51.235Z,98684.97
2023-05-21T02:28:19.659Z,98693.03
2023-05-21T02:30:48.234Z,98691.38
2023-05-21T02:33:17.604Z,98691.38
2023-05-21T02:35:46.259Z,98695.72
2023-05-21T02:38:14.757Z,98690.34
2023-05-21T02:40:43.193Z,98688.50
2023-05-21T02:43:14.814Z,98690.34
2023-05-21T02:45:44.568Z,98689.53
2023-05-21T02:48:13.167Z,98683.31
2023-05-21T02:50:41.921Z,98684.16
2023-05-21T02:53:10.266Z,98680.63
2023-05-21T02:55:39.090Z,98682.28
2023-05-21T02:58:07.641Z,98681.44
2023-05-21T03:00:37.441Z,98687.66
2023-05-21T03:03:06.121Z,98681.63
2023-05-21T03:05:34.695Z,98682.28
2023-05-21T03:08:03.865Z,98684.16
2023-05-21T03:10:32.229Z,98675.25
2023-05-21T03:13:01.339Z,98685.16
2023-05-21T03:15:33.586Z,98681.63
2023-05-21T03:18:04.448Z,98686.00
2023-05-21T03:20:33.638Z,98680.63
2023-05-21T03:23:05.826Z,98678.91
2023-05-21T03:25:34.831Z,98682.47
2023-05-21T03:28:03.483Z,98679.78
2023-05-21T03:30:31.877Z,98681.63
2023-05-21T03:33:01.185Z,98672.72
2023-05-21T03:35:30.955Z,98681.63
2023-05-21T03:37:59.732Z,98673.53
2023-05-21T03:40:29.537Z,98674.41
2023-05-21T03:42:57.903Z,98677.94
2023-05-21T03:45:26.355Z,98670.84
2023-05-21T03:47:54.773Z,98670.69
2023-05-21T03:50:23.577Z,98666.34
2023-05-21T03:52:53.311Z,98669.03
2023-05-21T03:55:21.885Z,98664.47
2023-05-21T03:57:50.461Z,98671.72
2023-05-21T04:00:19.356Z,98668.16
2023-05-21T04:02:48.089Z,98671.72
2023-05-21T04:05:16.606Z,98666.34
2023-05-21T04:07:46.512Z,98662.78
2023-05-21T04:10:16.930Z,98668.16
2023-05-21T04:12:45.350Z,98664.47
2023-05-21T04:15:14.908Z,98668.16
2023-05-21T04:17:43.495Z,98662.78
2023-05-21T04:20:13.736Z,98667.84
2023-05-21T04:22:42.336Z,98666.16
2023-05-21T04:25:11.178Z,98672.38
2023-05-21T04:27:43.038Z,98668.84
2023-05-21T04:30:12.163Z,98673.22
2023-05-21T04:32:40.617Z,98674.06
2023-05-21T04:35:10.529Z,98675.91
2023-05-21T04:37:42.166Z,98675.72
2023-05-21T04:40:12.043Z,98669.34
2023-05-21T04:42:41.810Z,98672.88
2023-05-21T04:45:11.712Z,98673.72
2023-05-21T04:47:41.137Z,98668.34
2023-05-21T04:50:12.053Z,98685.31
2023-05-21T04:52:41.531Z,98682.63
2023-05-21T04:55:10.712Z,98685.31
2023-05-21T04:57:39.358Z,98684.31
2023-05-21T05:00:10.986Z,98681.63
2023-05-21T05:02:39.604Z,98678.94
2023-05-21T05:05:08.771Z,98683.28
2023-05-21T05:07:39.929Z,98677.09
2023-05-21T05:10:09.943Z,98676.25
2023-05-21T05:12:38.363Z,98677.91
2023-05-21T05:15:10.003Z,98683.28
2023-05-21T05:17:40.020Z,98690.34
2023-05-21T05:20:10.609Z,98683.09
2023-05-21T05:22:39.029Z,98690.00
2023-05-21T05:25:08.316Z,98685.63
2023-05-21T05:27:38.372Z,98689.34
2023-05-21T05:30:13.510Z,98683.63
2023-05-21T05:32:42.118Z,98697.22
2023-05-21T05:35:11.433Z,98683.28
2023-05-21T05:37:39.983Z,98682.44
2023-05-21T05:40:09.716Z,98680.94
2023-05-21T05:42:38.308Z,98690.31
2023-05-21T05:45:07.669Z,98683.44
2023-05-21T05:47:37.464Z,98684.81
2023-05-21T05:50:07.314Z,98672.69
2023-05-21T05:52:35.731Z,98677.75
2023-05-21T05:55:04.760Z,98679.28
2023-05-21T05:57:33.220Z,98678.91
2023-05-21T06:00:01.711Z,98672.88
2023-05-21T06:02:30.610Z,98674.56
2023-05-21T06:05:00.453Z,98674.19
2023-05-21T06:07:29.101Z,98683.09
2023-05-21T06:09:57.486Z,98676.88
2023-05-21T06:12:26.688Z,98677.72
2023-05-21T06:14:55.401Z,98676.72
2023-05-21T06:17:24.174Z,98676.72
2023-05-21T06:19:55.741Z,98671.16
2023-05-21T06:22:25.862Z,98671.50
2023-05-21T06:24:54.282Z,98669.84
2023-05-21T06:27:22.845Z,98670.53
2023-05-21T06:29:51.387Z,98673.84
2023-05-21T06:32:21.646Z,98666.47
2023-05-21T06:34:50.070Z,98669.81
2023-05-21T06:37:21.035Z,98664.94
2023-05-21T06:39:51.194Z,98662.44
2023-05-21T06:42:19.613Z,98657.41
2023-05-21T06:44:48.227Z,98661.72
2023-05-21T06:47:16.714Z,98658.38
2023-05-21T06:49:45.130Z,98652.97
2023-05-21T06:52:13.677Z,98651.31
2023-05-21T06:54:42.478Z,98652.16
2023-05-21T06:57:12.714Z,98647.94
2023-05-21T06:59:41.134Z,98652.63
2023-05-21T07:02:09.620Z,98646.09
2023-05-21T07:04:38.164Z,98645.09
2023-05-21T07:07:07.012Z,98644.41
2023-05-21T07:09:35.485Z,98634.34
2023-05-21T07:12:03.863Z,98634.16
2023-05-21T07:14:33.859Z,98631.13
2023-05-21T07:17:02.341Z,98626.78
2023-05-21T07:19:31.563Z,98624.78
2023-05-21T07:22:00.200Z,98630.31
2023-05-21T07:24:28.622Z,98624.78
2023-05-21T07:26:57.170Z,98628.44
2023-05-21T07:29:25.575Z,98621.06
2023-05-21T07:31:55.481Z,98630.63
2023-05-21T07:34:23.894Z,98627.78
2023-05-21T07:36:52.294Z,98617.00
2023-05-21T07:39:20.990Z,98625.25
2023-05-21T07:41:49.416Z,98616.34
2023-05-21T07:44:17.950Z,98618.69
2023-05-21T07:46:46.561Z,98615.16
2023-05-21T07:49:17.145Z,98619.50
2023-05-21T07:51:45.870Z,98615.16
2023-05-21T07:54:14.322Z,98612.97
2023-05-21T07:56:42.794Z,98608.59
2023-05-21T07:59:12.792Z,98613.31
2023-05-21T08:01:43.506Z,98606.59
2023-05-21T08:04:12.067Z,98612.63
2023-05-21T08:06:41.882Z,98606.25
2023-05-21T08:09:11.374Z,98603.72
2023-05-21T08:11:39.769Z,98604.56
2023-05-21T08:14:08.182Z,98602.88
2023-05-21T08:16:37.104Z,98610.59
2023-05-21T08:19:05.971Z,98607.75
2023-05-21T08:21:34.939Z,98602.53
2023-05-21T08:24:04.809Z,98601.03
2023-05-21T08:26:33.197Z,98600.00
2023-05-21T08:29:01.893Z,98597.31
2023-05-21T08:31:31.041Z,98595.50
2023-05-21T08:33:59.720Z,98596.13
2023-05-21T08:36:28.130Z,98609.59
2023-05-21T08:38:56.535Z,98602.84
2023-05-21T08:41:27.269Z,98596.78
2023-05-21T08:43:57.664Z,98600.31
2023-05-21T08:46:26.285Z,98590.41
2023-05-21T08:48:56.061Z,98587.53
2023-05-21T08:51:24.604Z,98594.78
2023-05-21T08:53:53.046Z,98597.31
2023-05-21T08:56:21.446Z,98595.44
2023-05-21T08:58:51.376Z,98591.41
2023-05-21T09:01:20.332Z,98586.72
2023-05-21T09:03:49.426Z,98587.06
2023-05-21T09:06:17.878Z,98590.41
2023-05-21T09:08:46.958Z,98591.25
2023-05-21T09:11:15.901Z,98591.25
2023-05-21T09:13:44.363Z,98588.56
2023-05-21T09:16:14.434Z,98594.09
2023-05-21T09:18:43.197Z,98588.38
2023-05-21T09:21:28.125Z,98589.56
2023-05-21T09:23:57.444Z,98584.84
2023-05-21T09:26:25.947Z,98595.44
2023-05-21T09:28:58.520Z,98592.09
2023-05-21T09:31:28.436Z,98583.00
2023-05-21T09:33:56.913Z,98585.03
2023-05-21T09:36:25.807Z,98596.13
2023-05-21T09:38:54.523Z,98588.38
2023-05-21T09:41:24.331Z,98583.34
2023-05-21T09:43:53.178Z,98581.47
2023-05-21T09:46:24.747Z,98576.97
2023-05-21T09:48:54.748Z,98588.22
2023-05-21T09:51:23.163Z,98584.69
2023-05-21T09:53:53.161Z,98584.31
2023-05-21T09:56:24.567Z,98588.88
2023-05-21T09:58:55.831Z,98583.00
2023-05-21T10:01:25.091Z,98584.00
2023-05-21T10:03:58.031Z,98582.00
2023-05-21T10:06:28.138Z,98583.84
2023-05-21T10:08:58.109Z,98575.59
2023-05-21T10:11:27.780Z,98567.72
2023-05-21T10:13:59.155Z,98575.59
2023-05-21T10:16:27.616Z,98574.91
2023-05-21T10:18:57.761Z,98570.56
2023-05-21T10:21:26.439Z,98558.78
2023-05-21T10:23:56.537Z,98569.06
2023-05-21T10:26:25.429Z,98565.66
2023-05-21T10:28:54.115Z,98559.91
2023-05-21T10:31:22.565Z,98564.47
2023-05-21T10:33:51.269Z,98560.78
2023-05-21T10:36:21.928Z,98561.78
2023-05-21T10:38:50.519Z,98570.69
2023-05-21T10:41:20.037Z,98567.16
2023-05-21T10:43:53.569Z,98568.84
2023-05-21T10:47:08.510Z,98553.34
2023-05-21T10:50:00.887Z,98561.25
2023-05-21T10:52:58.236Z,98555.03
2023-05-21T10:55:37.855Z,98551.31
2023-05-21T10:58:36.164Z,98552.47
2023-05-21T11:01:04.675Z,98553.50
2023-05-21T11:03:36.491Z,98551.09
2023-05-21T11:06:06.739Z,98563.53
2023-05-21T11:08:37.665Z,98561.03
2023-05-21T11:11:06.463Z,98546.72
2023-05-21T11:13:49.123Z,98548.56
2023-05-21T11:16:18.111Z,98542.84
2023-05-21T11:19:03.382Z,98549.06
2023-05-21T11:21:33.153Z,98543.34
2023-05-21T11:24:08.492Z,98544.31
2023-05-21T11:27:06.939Z,98536.75
2023-05-21T11:29:45.642Z,98537.94
2023-05-21T11:32:17.681Z,98548.41
2023-05-21T11:34:47.076Z,98547.22
2023-05-21T11:37:33.460Z,98532.06
2023-05-21T11:40:36.950Z,98537.44
2023-05-21T11:43:05.705Z,98541.16
2023-05-21T11:45:34.591Z,98534.75
2023-05-21T11:48:03.221Z,98534.13
2023-05-21T11:50:33.835Z,98528.00
2023-05-21T11:53:02.596Z,98533.56
2023-05-21T11:55:32.084Z,98540.44
2023-05-21T11:58:01.915Z,98528.00
2023-05-21T12:00:30.429Z,98537.44
2023-05-21T12:02:59.448Z,98534.13
2023-05-21T12:05:28.377Z,98541.63
2023-05-21T12:07:58.505Z,98524.66
2023-05-21T12:10:27.100Z,98527.19
2023-05-21T12:12:57.350Z,98534.91
2023-05-21T12:15:27.979Z,98529.97
2023-05-21T12:17:57.242Z,98526.00
2023-05-21T12:20:28.694Z,98527.66
2023-05-21T12:23:00.542Z,98527.94
2023-05-21T12:25:30.033Z,98528.97
2023-05-21T12:27:59.041Z,98536.41
2023-05-21T12:30:29.231Z,98533.69
2023-05-21T12:33:02.319Z,98536.41
2023-05-21T12:35:32.259Z,98526.28
2023-05-21T12:38:03.278Z,98517.34
2023-05-21T12:40:39.425Z,98522.72
2023-05-21T12:43:08.694Z,98518.69
2023-05-21T12:45:39.580Z,98518.00
2023-05-21T12:48:08.780Z,98520.59
2023-05-21T12:50:40.898Z,98518.75
2023-05-21T12:53:11.644Z,98523.94
2023-05-21T12:55:40.716Z,98519.50
2023-05-21T12:58:09.564Z,98517.47
2023-05-21T13:00:39.845Z,98512.81
2023-05-21T13:03:08.755Z,98518.22
2023-05-21T13:05:37.169Z,98513.09
2023-05-21T13:08:06.514Z,98511.06
2023-05-21T13:10:35.431Z,98505.03
2023-05-21T13:13:04.123Z,98508.69
2023-05-21T13:15:33.241Z,98508.22
2023-05-21T13:18:03.423Z,98509.34
2023-05-21T13:20:32.069Z,98504.94
2023-05-21T13:23:01.790Z,98515.94
2023-05-21T13:25:32.954Z,98502.63
2023-05-21T13:28:03.441Z,98493.06
2023-05-21T13:30:33.336Z,98501.66
2023-05-21T13:33:03.205Z,98496.53
2023-05-21T13:35:32.352Z,98500.50
2023-05-21T13:38:01.016Z,98502.19
2023-05-21T13:40:29.437Z,98504.72
2023-05-21T13:42:58.001Z,98493.78
2023-05-21T13:45:29.447Z,98503.00
2023-05-21T13:48:00.035Z,98500.41
2023-05-21T13:50:30.038Z,98489.88
2023-05-21T13:52:58.480Z,98492.03
2023-05-21T13:55:27.395Z,98493.06
2023-05-21T13:57:55.909Z,98494.09
2023-05-21T14:00:24.372Z,98492.34
2023-05-21T14:02:53.056Z,98497.19
2023-05-21T14:05:21.840Z,98499.88
2023-05-21T14:07:51.994Z,98490.00
2023-05-21T14:10:21.581Z,98487.34
2023-05-21T14:12:50.116Z,98497.97
2023-05-21T14:15:18.996Z,98488.16
2023-05-21T14:17:47.596Z,98492.34
2023-05-21T14:20:16.201Z,98495.22
2023-05-21T14:22:44.712Z,98497.00
2023-05-21T14:25:14.660Z,98496.34
2023-05-21T14:27:43.049Z,98492.34
2023-05-21T14:30:12.629Z,98490.31
2023-05-21T14:32:41.175Z,98477.75
2023-05-21T14:35:10.313Z,98495.59
2023-05-21T14:37:38.751Z,98493.78
2023-05-21T14:40:09.430Z,98490.78
2023-05-21T14:42:39.333Z,98490.13
2023-05-21T14:45:18.600Z,98495.16
2023-05-21T14:47:48.946Z,98492.56
2023-05-21T14:50:19.427Z,98495.81
2023-05-21T14:52:47.966Z,98488.19
2023-05-21T14:55:18.502Z,98479.66
2023-05-21T14:57:48.387Z,98481.38
2023-05-21T15:00:17.401Z,98492.81
2023-05-21T15:02:46.275Z,98478.31
2023-05-21T15:05:14.801Z,98485.41
2023-05-21T15:07:43.326Z,98482.88
2023-05-21T15:10:12.333Z,98483.25
2023-05-21T15:12:41.669Z,98487.06
2023-05-21T15:15:13.618Z,98505.25
2023-05-21T15:17:42.266Z,98486.59
2023-05-21T15:20:11.478Z,98489.09
2023-05-21T15:22:40.352Z,98499.88
2023-05-21T15:25:09.858Z,98497.84
2023-05-21T15:27:38.586Z,98503.41
2023-05-21T15:30:10.484Z,98485.03
2023-05-21T15:32:39.212Z,98489.97
2023-05-21T15:35:08.851Z,98483.53
2023-05-21T15:37:37.373Z,98492.09
2023-05-21T15:40:09.002Z,98486.69
2023-05-21T15:42:37.643Z,98485.03
2023-05-21T15:45:09.538Z,98487.91
2023-05-21T15:47:43.438Z,98494.31
2023-05-21T15:50:14.951Z,98495.34
2023-05-21T15:52:43.663Z,98483.16
2023-05-21T15:55:14.328Z,98483.63
2023-05-21T15:57:43.806Z,98477.63
2023-05-21T16:00:14.331Z,98494.25
2023-05-21T16:02:44.238Z,98485.16
2023-05-21T16:05:12.755Z,98486.84
2023-05-21T16:07:41.164Z,98491.03
2023-05-21T16:10:11.693Z,98488.34
2023-05-21T16:12:40.135Z,98485.66
2023-05-21T16:15:10.558Z,98494.56
2023-05-21T16:17:39.407Z,98485.66
2023-05-21T16:20:10.404Z,98488.34
2023-05-21T16:22:38.998Z,98481.25
2023-05-21T16:25:09.192Z,98485.66
2023-05-21T16:27:38.054Z,98498.47
2023-05-21T16:30:08.639Z,98497.44
2023-05-21T16:32:40.151Z,98490.00
2023-05-21T16:35:10.621Z,98490.22
2023-05-21T16:37:39.480Z,98491.22
2023-05-21T16:40:09.964Z,98489.34
2023-05-21T16:42:39.835Z,98494.00
2023-05-21T16:45:11.037Z,98491.78
2023-05-21T16:47:39.451Z,98496.03
2023-05-21T16:50:11.671Z,98493.91
2023-05-21T16:52:40.103Z,98497.25
2023-05-21T16:55:09.675Z,98505.97
2023-05-21T16:57:38.400Z,98501.34
2023-05-21T17:00:08.822Z,98500.00
2023-05-21T17:02:37.595Z,98499.63
2023-05-21T17:05:07.316Z,98507.72
2023-05-21T17:07:37.205Z,98502.69
2023-05-21T17:10:09.518Z,98499.63
2023-05-21T17:12:38.360Z,98491.75
2023-05-21T17:15:08.629Z,98493.97
2023-05-21T17:17:37.279Z,98491.63
2023-05-21T17:20:07.115Z,98498.41
2023-05-21T17:22:37.033Z,98499.06
2023-05-21T17:25:06.338Z,98498.41
2023-05-21T17:27:35.162Z,98494.00
2023-05-21T17:30:04.074Z,98492.81
2023-05-21T17:32:32.900Z,98493.19
2023-05-21T17:35:01.660Z,98503.13
2023-05-21T17:37:30.521Z,98506.47
2023-05-21T17:40:00.331Z,98510.84
2023-05-21T17:42:28.982Z,98509.84
2023-05-21T17:44:57.534Z,98506.47
2023-05-21T17:47:26.111Z,98502.09
2023-05-21T17:49:54.865Z,98509.53
2023-05-21T17:52:23.830Z,98507.66
2023-05-21T17:54:52.287Z,98514.09
2023-05-21T17:57:22.161Z,98515.91
2023-05-21T17:59:50.803Z,98513.41
2023-05-21T18:02:19.507Z,98508.03
2023-05-21T18:04:48.524Z,98513.41
2023-05-21T18:07:17.486Z,98508.19
2023-05-21T18:09:46.589Z,98518.97
2023-05-21T18:12:14.979Z,98512.91
2023-05-21T18:14:44.789Z,98517.78
2023-05-21T18:17:13.674Z,98520.81
2023-05-21T18:19:42.460Z,98513.13
2023-05-21T18:22:11.041Z,98513.88
2023-05-21T18:24:39.761Z,98521.28
2023-05-21T18:27:08.432Z,98516.41
2023-05-21T18:29:37.103Z,98521.13
2023-05-21T18:32:07.901Z,98520.31
2023-05-21T18:34:36.460Z,98519.81
2023-05-21T18:37:05.376Z,98526.69
2023-05-21T18:39:34.077Z,98516.09
2023-05-21T18:42:12.898Z,98521.66
2023-05-21T18:44:45.749Z,98509.69
2023-05-21T18:47:15.950Z,98507.22
2023-05-21T18:49:44.356Z,98511.72
2023-05-21T18:52:12.802Z,98506.69
2023-05-21T18:54:41.354Z,98518.13
2023-05-21T18:57:09.834Z,98514.25
2023-05-21T18:59:41.048Z,98510.53
2023-05-21T19:02:09.887Z,98515.09
2023-05-21T19:04:39.800Z,98517.59
2023-05-21T19:07:08.591Z,98522.78
2023-05-21T19:09:37.113Z,98520.09
2023-05-21T19:12:06.557Z,98521.81
2023-05-21T19:14:34.972Z,98529.56
2023-05-21T19:17:03.408Z,98527.56
2023-05-21T19:19:31.986Z,98530.63
2023-05-21T19:22:01.887Z,98527.47
2023-05-21T19:24:30.536Z,98527.56
2023-05-21T19:27:00.197Z,98533.50
2023-05-21T19:29:28.933Z,98530.34
2023-05-21T19:31:59.455Z,98524.22
2023-05-21T19:34:28.072Z,98527.66
2023-05-21T19:36:56.839Z,98541.09
2023-05-21T19:39:26.854Z,98533.88
2023-05-21T19:41:55.252Z,98527.66
2023-05-21T19:44:24.191Z,98534.69
2023-05-21T19:46:52.665Z,98540.09
2023-05-21T19:49:21.606Z,98543.63
2023-05-21T19:51:52.011Z,98532.00
2023-05-21T19:54:20.422Z,98537.38
2023-05-21T19:56:51.009Z,98531.84
2023-05-21T19:59:19.523Z,98538.06
2023-05-21T20:01:48.412Z,98539.91
2023-05-21T20:04:17.026Z,98536.19
2023-05-21T20:06:45.618Z,98538.88
2023-05-21T20:09:14.262Z,98526.47
2023-05-21T20:11:43.554Z,98534.38
2023-05-21T20:14:13.596Z,98527.28
2023-05-21T20:16:43.290Z,98527.28
2023-05-21T20:19:12.790Z,98530.81
2023-05-21T20:21:41.540Z,98527.28
2023-05-21T20:24:11.551Z,98533.50
2023-05-21T20:26:40.092Z,98532.50
2023-05-21T20:29:08.913Z,98528.97
2023-05-21T20:31:38.836Z,98530.66
2023-05-21T20:34:09.314Z,98529.81
2023-05-21T20:36:40.375Z,98529.81
2023-05-21T20:39:09.618Z,98529.81
2023-05-21T20:41:38.906Z,98524.44
2023-05-21T20:44:07.450Z,98527.94
2023-05-21T20:46:41.372Z,98527.94
2023-05-21T20:49:11.971Z,98521.75
2023-05-21T20:51:40.645Z,98526.28
2023-05-21T20:54:09.123Z,98522.56
2023-05-21T20:56:42.687Z,98515.53
2023-05-21T20:59:12.203Z,98517.53
2023-05-21T21:01:41.591Z,98520.25
2023-05-21T21:04:11.962Z,98508.63
2023-05-21T21:06:40.542Z,98516.72
2023-05-21T21:09:09.716Z,98519.41
2023-05-21T21:11:38.088Z,98512.31
2023-05-21T21:14:08.145Z,98522.94
2023-05-21T21:16:36.726Z,98531.84
2023-05-21T21:19:05.793Z,98520.25
2023-05-21T21:21:36.094Z,98532.66
2023-05-21T21:24:04.938Z,98522.94
2023-05-21T21:26:33.570Z,98528.31
2023-05-21T21:29:02.072Z,98526.63
2023-05-21T21:31:31.513Z,98530.19
2023-05-21T21:34:00.481Z,98525.63
2023-05-21T21:36:29.581Z,98523.09
2023-05-21T21:38:59.603Z,98512.53
2023-05-21T21:41:28.357Z,98519.56
2023-05-21T21:43:56.931Z,98517.72
2023-05-21T21:46:27.045Z,98515.22
2023-05-21T21:48:55.571Z,98522.25
2023-05-21T21:51:24.150Z,98522.25
2023-05-21T21:53:52.548Z,98525.78
2023-05-21T21:56:22.582Z,98520.59
2023-05-21T21:58:50.953Z,98520.59
2023-05-21T22:01:19.868Z,98519.75
2023-05-21T22:03:48.439Z,98533.88
2023-05-21T22:06:17.240Z,98536.75
2023-05-21T22:08:46.180Z,98535.06
2023-05-21T22:11:14.634Z,98532.38
2023-05-21T22:13:44.632Z,98533.41
2023-05-21T22:16:13.032Z,98533.41
2023-05-21T22:18:41.942Z,98533.41
2023-05-21T22:21:11.102Z,98535.25
2023-05-21T22:23:39.650Z,98528.19
2023-05-21T22:26:08.190Z,98528.00
2023-05-21T22:28:36.816Z,98521.81
2023-05-21T22:31:07.064Z,98519.09
2023-05-21T22:33:36.850Z,98506.66
2023-05-21T22:36:05.951Z,98510.16
2023-05-21T22:38:34.399Z,98516.41
2023-05-21T22:41:03.878Z,98512.84
2023-05-21T22:43:34.874Z,98512.84
2023-05-21T22:46:03.670Z,98513.88
2023-05-21T22:48:34.718Z,98510.38
2023-05-21T22:51:04.748Z,98507.84
2023-05-21T22:53:34.366Z,98506.84
2023-05-21T22:56:03.030Z,98508.69
2023-05-21T23:01:36.858Z,98505.16
2023-05-21T23:04:07.089Z,98500.78
2023-05-21T23:06:35.604Z,98497.94
2023-05-21T23:09:04.306Z,98490.69
2023-05-21T23:11:32.797Z,98494.38
2023-05-21T23:14:01.360Z,98495.41
2023-05-21T23:16:31.052Z,98492.72
2023-05-21T23:19:00.298Z,98497.25
2023-05-21T23:21:30.643Z,98495.56
2023-05-21T23:23:59.076Z,98498.47
2023-05-21T23:26:28.610Z,98496.59
2023-05-21T23:28:57.165Z,98498.47
2023-05-21T23:31:25.915Z,98491.38
2023-05-21T23:33:54.577Z,98496.78
2023-05-21T23:36:22.993Z,98495.94
2023-05-21T23:38:52.762Z,98489.72
2023-05-21T23:41:21.525Z,98500.50
2023-05-21T23:43:49.944Z,98490.75
2023-05-21T23:46:18.544Z,98492.56
2023-05-21T23:48:47.618Z,98498.63
2023-05-21T23:51:18.519Z,98492.56
2023-05-21T23:53:47.022Z,98490.91
2023-05-21T23:56:16.809Z,98486.38
2023-05-21T23:58:45.313Z,98490.09
